This is the latest recevied weather packets stored in our database for station/object WX5RP. If no packets are shown the sender has not sent any weather packets the latest 1 day(s).
| Time | Temp. | Humidity | Pressure | Rain* | Wind** | Luminosity | Snow |
|---|---|---|---|---|---|---|---|
| 1777994716 | 11.67° C | 64% | 1014.6 hPa | 0 mm | 2.68 m/s, 203° | 451 W/m² | - |
| 1777994115 | 11.11° C | 66% | 1014.6 hPa | 0 mm | 2.68 m/s, 180° | 418 W/m² | - |
| 1777993515 | 10.56° C | 67% | 1014.2 hPa | 0 mm | 2.24 m/s, 180° | 384 W/m² | - |
| 1777992915 | 10° C | 69% | 1014.5 hPa | 0 mm | 1.79 m/s, 203° | 349 W/m² | - |
| 1777992315 | 9.44° C | 71% | 1014.5 hPa | 0 mm | 1.79 m/s, 203° | 317 W/m² | - |
| 1777991715 | 8.33° C | 73% | 1014.4 hPa | 0 mm | 2.24 m/s, 203° | 278 W/m² | - |
| 1777991117 | 7.78° C | 75% | 1014.6 hPa | 0 mm | 2.24 m/s, 180° | 243 W/m² | - |
| 1777990517 | 7.22° C | 78% | 1014.3 hPa | 0 mm | 1.79 m/s, 203° | 204 W/m² | - |
| 1777989917 | 6.11° C | 79% | 1013.7 hPa | 0 mm | 1.79 m/s, 180° | 165 W/m² | - |
| 1777989317 | 5.56° C | 80% | 1013.4 hPa | 0 mm | 2.24 m/s, 180° | 128 W/m² | - |
| 1777988717 | 5° C | 81% | 1013.4 hPa | 0 mm | 1.79 m/s, 203° | 92 W/m² | - |
| 1777988117 | 3.89° C | 82% | 1013.5 hPa | 0 mm | 1.79 m/s, 180° | 65 W/m² | - |
| 1777987517 | 3.33° C | 82% | 1013.8 hPa | 0 mm | 0.45 m/s, 180° | 40 W/m² | - |
| 1777986917 | 3.33° C | 82% | 1013.7 hPa | 0 mm | 1.79 m/s, 180° | 21 W/m² | - |
| 1777986317 | 3.33° C | 81% | 1013.2 hPa | 0 mm | 1.34 m/s, 180° | 12 W/m² | - |
| 1777985717 | 3.89° C | 81% | 1013 hPa | 0 mm | 1.34 m/s, 180° | 6 W/m² | - |
| 1777985117 | 3.89° C | 81% | 1013.3 hPa | 0 mm | 2.24 m/s, 180° | 0 W/m² | - |
| 1777984516 | 3.89° C | 81% | 1013.4 hPa | 0 mm | 2.68 m/s, 203° | 0 W/m² | - |
| 1777983917 | 3.89° C | 81% | 1013.1 hPa | 0 mm | 2.24 m/s, 180° | 0 W/m² | - |
| 1777983316 | 3.89° C | 81% | 1013.4 hPa | 0 mm | 2.24 m/s, 180° | 0 W/m² | - |
* Rain latest hour (hover to see other rain measurements)
** Current wind speed in m/s (hover to see current wind gust speed)